Time;durP1;ratioP1;P1;durP2;ratioP2;P2;SDS_P1;SDS_P2;PMS_P1;PMS_P2;Temp;Humidity;BMP_temperature;BMP_pressure;BME280_temperature;BME280_humidity;BME280_pressure;Samples;Min_cycle;Max_cycle;Signal;HPM_P1;HPM_P2
2022/12/20 00:00:31;;;;;;;24.80;11.60;;;1.10;99.90;;;;;;10395386;28;20235;-78
2022/12/20 00:05:52;;;;;;;23.53;12.27;;;1.10;99.90;;;;;;10395652;28;20226;-78
2022/12/20 00:11:13;;;;;;;17.90;11.07;;;1.10;99.90;;;;;;10396485;28;20195;-79
2022/12/20 00:16:35;;;;;;;18.13;10.53;;;1.10;99.90;;;;;;10381473;28;20199;-78
2022/12/20 00:21:57;;;;;;;16.50;10.67;;;1.10;99.90;;;;;;10394833;28;20222;-78
2022/12/20 00:27:18;;;;;;;13.20;9.60;;;1.10;99.90;;;;;;10426788;28;20239;-79
2022/12/20 00:32:39;;;;;;;15.07;8.67;;;1.20;99.90;;;;;;10435881;28;20234;-79
2022/12/20 00:38:00;;;;;;;15.23;9.23;;;1.20;99.90;;;;;;10429009;28;20197;-79
2022/12/20 00:43:21;;;;;;;13.77;8.20;;;1.20;99.90;;;;;;10449551;28;20297;-79
2022/12/20 00:48:42;;;;;;;13.93;8.50;;;1.30;99.90;;;;;;10449347;28;20194;-78
2022/12/20 00:54:04;;;;;;;10.83;7.90;;;1.40;99.90;;;;;;10443317;28;20187;-79
2022/12/20 00:59:25;;;;;;;12.27;8.50;;;1.40;99.90;;;;;;10393692;28;20282;-79
2022/12/20 01:04:48;;;;;;;10.53;8.00;;;1.50;99.90;;;;;;10393702;28;20233;-79
2022/12/20 01:10:10;;;;;;;17.50;11.13;;;1.50;99.90;;;;;;10408909;28;20191;-79
2022/12/20 01:15:32;;;;;;;19.80;12.37;;;1.60;99.90;;;;;;10407671;28;20202;-79
2022/12/20 01:21:03;;;;;;;16.40;10.83;;;1.60;99.90;;;;;;10407358;28;20227;-79
2022/12/20 01:26:27;;;;;;;21.90;12.83;;;1.60;99.90;;;;;;10445075;28;20265;-78
2022/12/20 01:31:48;;;;;;;22.70;14.30;;;1.70;99.90;;;;;;10418792;28;20445;-79
2022/12/20 01:37:10;;;;;;;23.30;14.33;;;1.70;99.90;;;;;;10421395;28;20202;-78
2022/12/20 01:42:31;;;;;;;25.27;15.97;;;1.90;99.90;;;;;;10407338;28;20224;-79
2022/12/20 01:47:53;;;;;;;25.67;15.30;;;2.00;99.90;;;;;;10390965;28;20271;-78
2022/12/20 01:53:17;;;;;;;28.33;16.93;;;1.90;99.90;;;;;;10401560;28;20220;-79
2022/12/20 01:58:39;;;;;;;30.77;18.57;;;1.90;99.90;;;;;;10386990;28;20226;-79
2022/12/20 02:10:11;;;;;;;27.87;18.23;;;2.00;99.90;;;;;;10400129;28;20561;-79
2022/12/20 02:16:02;;;;;;;32.73;20.17;;;2.00;99.90;;;;;;10399961;28;20275;-78
2022/12/20 02:21:50;;;;;;;33.07;20.63;;;2.10;99.90;;;;;;10385371;28;20234;-79
2022/12/20 02:27:30;;;;;;;36.30;22.47;;;2.20;99.90;;;;;;10386220;28;20282;-79
2022/12/20 02:33:01;;;;;;;39.33;23.27;;;2.10;99.90;;;;;;10412915;28;20234;-79
2022/12/20 02:38:32;;;;;;;34.87;21.77;;;2.10;99.90;;;;;;10399018;28;20189;-78
2022/12/20 02:50:22;;;;;;;39.07;22.03;;;2.20;99.90;;;;;;10381866;28;20197;-78
2022/12/20 02:56:06;;;;;;;45.10;25.70;;;2.30;99.90;;;;;;10381574;28;20208;-79
2022/12/20 03:01:31;;;;;;;38.57;24.00;;;2.20;99.90;;;;;;10380910;28;20248;-79
2022/12/20 03:07:13;;;;;;;43.77;25.63;;;2.20;99.90;;;;;;10381605;28;20268;-79
2022/12/20 03:12:34;;;;;;;43.97;24.10;;;2.20;99.90;;;;;;10395272;28;20275;-79
2022/12/20 03:17:56;;;;;;;38.60;24.80;;;2.20;99.90;;;;;;10394523;28;20231;-79
2022/12/20 03:23:17;;;;;;;44.17;24.97;;;2.20;99.90;;;;;;10357374;28;20225;-79
2022/12/20 03:28:38;;;;;;;35.60;22.87;;;2.10;99.90;;;;;;10377876;28;20286;-79
2022/12/20 03:34:01;;;;;;;39.73;24.07;;;2.20;99.90;;;;;;10383135;28;20571;-79
2022/12/20 03:39:23;;;;;;;43.03;25.70;;;2.20;99.90;;;;;;10396659;28;20268;-79
2022/12/20 03:44:46;;;;;;;38.90;24.83;;;2.30;99.90;;;;;;10396168;28;20247;-79
2022/12/20 03:50:08;;;;;;;46.83;25.33;;;2.20;99.90;;;;;;10396350;28;20402;-79
2022/12/20 03:55:30;;;;;;;39.73;24.17;;;2.10;99.90;;;;;;10381980;28;20197;-79
2022/12/20 04:00:52;;;;;;;40.23;23.90;;;2.20;99.90;;;;;;10395318;28;20251;-79
2022/12/20 04:06:35;;;;;;;40.93;23.83;;;2.20;99.90;;;;;;10371380;28;20208;-79
2022/12/20 04:11:56;;;;;;;38.23;24.03;;;2.20;99.90;;;;;;10395005;28;20192;-79
2022/12/20 04:17:17;;;;;;;37.13;22.67;;;2.20;99.90;;;;;;10396074;28;20498;-79
2022/12/20 04:22:40;;;;;;;41.50;25.27;;;2.20;99.90;;;;;;10367721;28;20532;-79
2022/12/20 04:28:01;;;;;;;44.43;27.13;;;2.30;99.90;;;;;;10395269;28;20423;-79
2022/12/20 04:33:24;;;;;;;44.60;26.03;;;2.30;99.90;;;;;;10395198;28;20231;-79
2022/12/20 04:38:47;;;;;;;41.07;23.47;;;2.30;99.90;;;;;;10395204;28;20211;-79
2022/12/20 04:44:08;;;;;;;43.07;24.80;;;2.20;99.90;;;;;;10394253;28;20213;-79
2022/12/20 04:49:30;;;;;;;43.17;24.33;;;2.20;99.90;;;;;;10394588;28;20189;-79
2022/12/20 04:54:52;;;;;;;44.53;25.73;;;2.20;99.90;;;;;;10394089;28;20377;-79
2022/12/20 05:00:19;;;;;;;48.30;27.10;;;2.30;99.90;;;;;;10393844;28;20196;-79
2022/12/20 05:05:47;;;;;;;45.70;26.03;;;2.30;99.90;;;;;;10394197;28;20212;-79
2022/12/20 05:11:10;;;;;;;41.37;24.73;;;2.30;99.90;;;;;;10380157;28;20221;-79
2022/12/20 05:16:31;;;;;;;44.20;26.60;;;2.40;99.90;;;;;;10379947;28;20201;-79
2022/12/20 05:27:42;;;;;;;43.27;26.23;;;2.30;99.90;;;;;;10390791;28;20196;-79
2022/12/20 05:33:04;;;;;;;44.43;25.67;;;2.20;99.90;;;;;;10401233;28;20233;-78
2022/12/20 05:38:25;;;;;;;47.63;26.47;;;2.30;99.90;;;;;;10387090;28;20272;-79
2022/12/20 05:43:48;;;;;;;48.30;27.00;;;2.40;99.90;;;;;;10400806;28;20299;-79
2022/12/20 05:49:09;;;;;;;41.10;25.73;;;2.30;99.90;;;;;;10386889;28;20212;-79
2022/12/20 05:54:31;;;;;;;39.57;23.77;;;2.30;99.90;;;;;;10400287;28;20391;-79
2022/12/20 05:59:59;;;;;;;48.70;26.00;;;2.30;99.90;;;;;;10386182;28;20266;-79
2022/12/20 06:05:25;;;;;;;49.73;27.93;;;2.40;99.90;;;;;;10359052;28;20321;-79
2022/12/20 06:10:48;;;;;;;50.97;28.53;;;2.30;99.90;;;;;;10359977;28;20220;-79
2022/12/20 06:16:10;;;;;;;52.13;29.53;;;2.40;99.90;;;;;;10359049;28;20387;-79
2022/12/20 06:21:31;;;;;;;47.07;27.13;;;2.40;99.90;;;;;;10358761;28;20213;-79
2022/12/20 06:26:54;;;;;;;50.60;26.60;;;2.40;99.90;;;;;;10386773;28;20387;-79
2022/12/20 06:32:18;;;;;;;41.37;24.23;;;2.40;99.90;;;;;;10385010;28;20260;-80
2022/12/20 06:37:40;;;;;;;45.30;25.80;;;2.40;99.90;;;;;;10397071;28;20185;-79
2022/12/20 06:43:00;;;;;;;45.67;25.70;;;2.40;99.90;;;;;;10398237;28;20546;-80
2022/12/20 06:48:22;;;;;;;42.70;24.57;;;2.40;99.90;;;;;;10398224;28;20220;-78
2022/12/20 06:53:44;;;;;;;51.40;26.53;;;2.40;99.90;;;;;;10383924;28;20200;-79
2022/12/20 06:59:05;;;;;;;43.63;24.73;;;2.50;99.90;;;;;;10397890;28;20204;-78
2022/12/20 07:04:27;;;;;;;49.20;27.00;;;2.40;99.90;;;;;;10398332;28;20227;-79
2022/12/20 07:09:48;;;;;;;60.53;32.83;;;2.40;99.90;;;;;;10383076;28;20196;-80
2022/12/20 07:15:09;;;;;;;63.17;32.30;;;2.40;99.90;;;;;;10398418;28;20267;-81
2022/12/20 07:20:32;;;;;;;56.73;32.27;;;2.40;99.90;;;;;;10397504;28;20209;-81
2022/12/20 07:25:58;;;;;;;52.80;29.63;;;2.40;99.90;;;;;;10401934;28;20224;-80
2022/12/20 07:31:20;;;;;;;54.13;29.13;;;2.40;99.90;;;;;;10423535;28;20232;-81
2022/12/20 07:36:41;;;;;;;54.13;28.80;;;2.40;99.90;;;;;;10375357;28;20199;-80
2022/12/20 07:42:03;;;;;;;51.00;27.47;;;2.40;99.90;;;;;;10410090;28;20227;-80
2022/12/20 07:47:34;;;;;;;48.97;27.83;;;2.40;99.90;;;;;;10368984;28;20193;-80
2022/12/20 07:52:57;;;;;;;44.37;25.57;;;2.40;99.90;;;;;;10381253;28;20223;-80
2022/12/20 07:58:19;;;;;;;54.93;31.47;;;2.40;99.90;;;;;;10395847;28;20244;-80
2022/12/20 08:03:48;;;;;;;54.07;30.30;;;2.50;99.90;;;;;;10395273;28;20614;-81
2022/12/20 08:09:12;;;;;;;48.00;30.60;;;2.40;99.90;;;;;;10341948;28;20301;-80
2022/12/20 08:14:33;;;;;;;46.47;25.77;;;2.40;99.90;;;;;;10384038;28;20201;-81
2022/12/20 08:19:56;;;;;;;52.60;27.57;;;2.40;99.90;;;;;;10390748;28;20196;-81
2022/12/20 08:25:18;;;;;;;47.57;28.40;;;2.50;99.90;;;;;;10364841;28;20311;-80
2022/12/20 08:30:39;;;;;;;43.57;24.03;;;2.50;99.90;;;;;;10403296;28;20236;-79
2022/12/20 08:36:03;;;;;;;42.93;24.63;;;2.60;99.90;;;;;;10389530;28;20235;-79
2022/12/20 08:41:24;;;;;;;43.90;24.33;;;2.50;99.90;;;;;;10372539;28;20197;-80
2022/12/20 08:46:45;;;;;;;47.73;25.13;;;2.60;99.90;;;;;;10334611;28;20224;-80
2022/12/20 08:52:06;;;;;;;64.70;31.17;;;2.60;99.90;;;;;;10348656;28;20193;-79
2022/12/20 08:57:28;;;;;;;81.03;39.97;;;2.70;99.90;;;;;;10392662;28;20193;-80
2022/12/20 09:02:50;;;;;;;73.07;40.50;;;2.60;99.90;;;;;;10396801;28;20241;-79
2022/12/20 09:08:13;;;;;;;55.27;29.17;;;2.60;99.90;;;;;;10396571;28;20415;-81
2022/12/20 09:13:35;;;;;;;46.73;26.67;;;2.70;99.90;;;;;;10384058;28;20354;-80
2022/12/20 09:19:00;;;;;;;46.07;25.93;;;2.70;99.90;;;;;;10404403;28;20196;-78
2022/12/20 09:24:24;;;;;;;51.67;26.37;;;2.80;99.90;;;;;;10409514;28;20240;-83
2022/12/20 09:29:45;;;;;;;55.20;29.47;;;2.80;99.90;;;;;;10382352;28;20236;-80
2022/12/20 09:35:06;;;;;;;53.50;28.50;;;2.80;99.90;;;;;;10396728;28;20207;-79
2022/12/20 09:40:31;;;;;;;50.63;26.20;;;2.80;99.90;;;;;;10395834;28;20193;-78
2022/12/20 09:45:55;;;;;;;47.47;25.33;;;3.00;99.90;;;;;;10341068;28;20522;-79
2022/12/20 09:52:01;;;;;;;51.90;29.50;;;3.00;99.90;;;;;;10340030;28;20236;-79
2022/12/20 09:57:46;;;;;;;48.47;27.20;;;3.00;99.90;;;;;;10393357;28;20191;-78
2022/12/20 10:03:17;;;;;;;59.40;28.90;;;3.30;99.90;;;;;;10381128;28;20227;-81
2022/12/20 10:09:09;;;;;;;48.73;27.80;;;3.30;99.90;;;;;;10393267;28;20377;-77
2022/12/20 10:14:49;;;;;;;52.37;27.73;;;3.00;99.90;;;;;;10380217;28;20205;-77
2022/12/20 10:20:10;;;;;;;50.03;26.20;;;3.00;99.90;;;;;;10393276;28;20215;-77
2022/12/20 10:25:33;;;;;;;61.87;30.23;;;3.10;99.90;;;;;;10389266;28;20574;-78
2022/12/20 10:30:59;;;;;;;50.30;26.17;;;3.20;99.90;;;;;;10412180;28;20310;-76
2022/12/20 10:36:32;;;;;;;54.70;26.30;;;3.20;99.90;;;;;;10392286;28;20237;-78
2022/12/20 10:41:53;;;;;;;50.10;26.17;;;3.30;99.90;;;;;;10394957;28;20227;-77
2022/12/20 10:47:35;;;;;;;64.50;31.43;;;3.30;99.90;;;;;;10402575;28;20395;-79
2022/12/20 10:53:08;;;;;;;77.43;35.93;;;3.30;99.90;;;;;;10392725;28;20204;-77
2022/12/20 10:58:37;;;;;;;63.53;29.33;;;3.40;99.90;;;;;;10364883;28;20287;-77
2022/12/20 11:04:02;;;;;;;66.63;33.13;;;3.30;99.90;;;;;;10364743;28;20278;-77
2022/12/20 11:09:32;;;;;;;58.50;27.93;;;3.30;99.90;;;;;;10415006;28;20193;-78
2022/12/20 11:15:18;;;;;;;56.27;27.13;;;3.30;99.90;;;;;;10381998;28;20209;-77
2022/12/20 11:20:57;;;;;;;71.20;35.47;;;3.40;99.90;;;;;;10392521;28;20256;-78
2022/12/20 11:26:33;;;;;;;60.43;29.90;;;3.30;99.90;;;;;;10422258;28;20236;-78
2022/12/20 11:32:07;;;;;;;53.97;28.17;;;3.30;99.90;;;;;;10402601;28;20266;-83
2022/12/20 11:37:40;;;;;;;54.23;28.30;;;3.50;99.90;;;;;;10391281;28;20209;-77
2022/12/20 11:43:14;;;;;;;56.23;26.87;;;3.60;99.90;;;;;;10395139;28;20271;-78
2022/12/20 11:48:59;;;;;;;49.97;27.97;;;3.50;99.90;;;;;;10391275;28;20431;-77
2022/12/20 11:54:38;;;;;;;47.40;25.77;;;3.60;99.90;;;;;;10392257;28;20204;-78
2022/12/20 12:00:01;;;;;;;57.63;28.70;;;3.60;99.90;;;;;;10389564;28;20211;-78
2022/12/20 12:05:46;;;;;;;50.93;28.67;;;3.60;99.90;;;;;;10387821;28;20229;-79
2022/12/20 12:11:17;;;;;;;68.20;36.67;;;3.60;99.90;;;;;;10388234;28;20224;-79
2022/12/20 12:16:59;;;;;;;54.67;28.93;;;3.60;99.90;;;;;;10376600;28;20200;-79
2022/12/20 12:22:24;;;;;;;55.23;29.77;;;;;;;;;;10389447;28;20257;-78
2022/12/20 12:27:45;;;;;;;60.13;32.63;;;;;;;;;;10409652;28;20205;-78
2022/12/20 12:33:18;;;;;;;63.27;35.17;;;3.90;99.90;;;;;;10402299;28;20514;-78
2022/12/20 12:39:41;;;;;;;57.87;32.30;;;3.60;99.90;;;;;;10389590;28;20201;-79
2022/12/20 12:45:34;;;;;;;56.07;28.90;;;3.60;99.90;;;;;;10385497;28;20875;-79
2022/12/20 12:50:57;;;;;;;47.13;26.07;;;3.60;99.90;;;;;;10355630;28;20209;-77
2022/12/20 12:56:27;;;;;;;46.97;25.63;;;3.70;99.90;;;;;;10371704;28;20216;-79
2022/12/20 13:02:13;;;;;;;47.93;26.13;;;3.60;99.90;;;;;;10358284;28;20558;-78
2022/12/20 13:07:35;;;;;;;46.83;25.07;;;3.60;99.90;;;;;;10384141;28;20213;-79
2022/12/20 13:12:58;;;;;;;46.73;26.93;;;3.60;99.90;;;;;;10380744;28;20252;-80
2022/12/20 13:18:24;;;;;;;52.37;27.80;;;3.60;99.90;;;;;;10409025;28;20309;-78
2022/12/20 13:23:45;;;;;;;49.97;26.03;;;3.60;99.90;;;;;;10392789;28;20429;-78
2022/12/20 13:29:26;;;;;;;51.70;28.40;;;3.60;99.90;;;;;;10361931;28;20203;-78
2022/12/20 13:34:57;;;;;;;49.67;27.40;;;3.60;99.90;;;;;;10409904;28;20189;-80
2022/12/20 13:40:42;;;;;;;42.87;24.97;;;3.60;99.90;;;;;;10395693;28;20380;-80
2022/12/20 13:46:09;;;;;;;45.83;25.90;;;3.60;99.90;;;;;;10401858;28;20243;-77
2022/12/20 13:51:31;;;;;;;57.50;28.87;;;3.60;99.90;;;;;;10409786;28;20200;-77
2022/12/20 13:56:52;;;;;;;70.50;36.07;;;3.60;99.90;;;;;;10389804;28;20219;-77
2022/12/20 14:02:23;;;;;;;62.83;31.50;;;3.60;99.90;;;;;;10403022;28;20277;-78
2022/12/20 14:08:00;;;;;;;67.50;34.37;;;3.70;99.90;;;;;;10395571;28;20206;-77
2022/12/20 14:13:26;;;;;;;84.90;44.13;;;3.60;99.90;;;;;;10375473;28;20201;-77
2022/12/20 14:19:13;;;;;;;92.60;43.57;;;3.60;99.90;;;;;;10380825;28;20208;-77
2022/12/20 14:24:42;;;;;;;82.73;42.87;;;3.60;99.90;;;;;;10385323;28;20229;-77
2022/12/20 14:30:05;;;;;;;61.60;34.53;;;3.50;99.90;;;;;;10381902;28;20258;-79
2022/12/20 14:35:27;;;;;;;65.40;35.53;;;3.50;99.90;;;;;;10369767;28;20219;-80
2022/12/20 14:40:48;;;;;;;76.43;36.50;;;3.40;99.90;;;;;;10389141;28;20292;-79
2022/12/20 14:46:21;;;;;;;77.37;39.27;;;3.50;99.90;;;;;;10400081;28;20441;-77
2022/12/20 14:51:42;;;;;;;74.33;42.97;;;3.50;99.90;;;;;;10363055;28;20218;-79
2022/12/20 14:57:11;;;;;;;84.10;39.90;;;3.60;99.90;;;;;;10357985;28;20207;-79
2022/12/20 15:02:45;;;;;;;68.50;35.43;;;3.60;99.90;;;;;;10399629;28;20239;-79
2022/12/20 15:08:15;;;;;;;62.17;32.40;;;3.70;99.90;;;;;;10376287;28;20224;-80
2022/12/20 15:13:44;;;;;;;57.43;30.23;;;3.70;99.90;;;;;;10372431;28;20267;-78
2022/12/20 15:19:09;;;;;;;75.67;37.37;;;3.60;99.90;;;;;;10356667;28;20216;-79
2022/12/20 15:24:31;;;;;;;55.50;29.70;;;3.70;99.90;;;;;;10359866;28;20241;-79
2022/12/20 15:29:52;;;;;;;55.93;28.80;;;3.70;99.90;;;;;;10386948;28;20249;-78
2022/12/20 15:35:14;;;;;;;57.77;27.77;;;3.60;99.90;;;;;;10397702;28;20284;-79
2022/12/20 15:40:36;;;;;;;53.20;27.80;;;3.70;99.90;;;;;;10397810;28;20238;-78
2022/12/20 15:45:57;;;;;;;61.27;30.80;;;3.70;99.90;;;;;;10385655;28;20229;-79
2022/12/20 15:51:29;;;;;;;50.90;28.87;;;3.70;99.90;;;;;;10355883;28;20209;-80
2022/12/20 15:56:51;;;;;;;53.23;28.57;;;3.60;99.90;;;;;;10387640;28;20206;-78
2022/12/20 16:02:27;;;;;;;58.27;32.33;;;3.60;99.90;;;;;;10376378;28;20303;-78
2022/12/20 16:07:48;;;;;;;86.23;43.63;;;3.60;99.90;;;;;;10369513;28;20737;-79
2022/12/20 16:13:21;;;;;;;85.70;44.43;;;3.60;99.90;;;;;;10365940;28;20516;-77
2022/12/20 16:18:43;;;;;;;138.50;58.07;;;3.60;99.90;;;;;;10373265;28;20197;-79
2022/12/20 16:24:05;;;;;;;130.57;57.03;;;3.60;99.90;;;;;;10373941;28;20301;-78
2022/12/20 16:29:26;;;;;;;118.53;51.20;;;3.60;99.90;;;;;;10380642;28;20347;-79
2022/12/20 16:34:51;;;;;;;83.30;38.77;;;3.50;99.90;;;;;;10395651;28;20252;-76
2022/12/20 16:40:14;;;;;;;68.83;38.23;;;3.50;99.90;;;;;;10378964;28;20225;-76
2022/12/20 16:45:35;;;;;;;84.43;41.47;;;3.50;99.90;;;;;;10368668;28;20280;-79
2022/12/20 16:50:56;;;;;;;76.90;35.90;;;3.50;99.90;;;;;;10367411;28;20201;-80
2022/12/20 16:56:18;;;;;;;76.03;40.87;;;3.50;99.90;;;;;;10367875;28;20201;-79
2022/12/20 17:01:41;;;;;;;108.50;49.63;;;3.50;99.90;;;;;;10366769;28;20510;-76
2022/12/20 17:07:02;;;;;;;78.37;38.67;;;3.40;99.90;;;;;;10368668;28;20232;-77
2022/12/20 17:12:23;;;;;;;93.40;42.97;;;3.40;99.90;;;;;;10381848;28;20216;-77
2022/12/20 17:17:44;;;;;;;96.50;47.97;;;3.30;99.90;;;;;;10400749;28;20221;-76
2022/12/20 17:23:10;;;;;;;85.17;43.37;;;3.30;99.90;;;;;;10413148;28;20229;-78
2022/12/20 17:28:31;;;;;;;93.07;45.83;;;3.30;99.90;;;;;;10364618;28;20218;-78
2022/12/20 17:33:52;;;;;;;70.57;37.93;;;3.30;99.90;;;;;;10364832;28;20416;-79
2022/12/20 17:39:14;;;;;;;72.47;38.83;;;3.30;99.90;;;;;;10399216;28;20209;-75
2022/12/20 17:44:35;;;;;;;72.33;38.13;;;3.20;99.90;;;;;;10384073;28;20472;-80
2022/12/20 17:49:56;;;;;;;91.67;44.17;;;3.20;99.90;;;;;;10388944;28;20560;-78
2022/12/20 17:55:23;;;;;;;104.90;49.37;;;3.30;99.90;;;;;;10346553;28;20208;-78
2022/12/20 18:00:45;;;;;;;83.63;43.93;;;3.20;99.90;;;;;;10359472;28;20226;-77
2022/12/20 18:06:07;;;;;;;147.90;60.20;;;3.20;99.90;;;;;;10421481;28;20410;-79
2022/12/20 18:11:28;;;;;;;123.00;52.27;;;3.20;99.90;;;;;;10427366;28;20196;-76
2022/12/20 18:16:49;;;;;;;98.93;45.67;;;3.30;99.90;;;;;;10409079;28;20225;-78
2022/12/20 18:22:10;;;;;;;101.40;46.43;;;3.40;99.90;;;;;;10404418;28;20199;-76
2022/12/20 18:27:37;;;;;;;74.20;36.67;;;3.40;99.90;;;;;;10366853;28;20268;-78
2022/12/20 18:32:57;;;;;;;64.93;36.57;;;3.40;99.90;;;;;;10366913;28;20233;-77
2022/12/20 18:38:22;;;;;;;68.07;37.07;;;3.40;99.90;;;;;;10364449;28;20249;-80
2022/12/20 18:43:43;;;;;;;83.33;38.87;;;3.40;99.90;;;;;;10360631;28;20457;-79
2022/12/20 18:49:05;;;;;;;65.10;33.73;;;3.40;99.90;;;;;;10358991;28;20204;-79
2022/12/20 18:54:26;;;;;;;68.23;35.07;;;3.30;99.90;;;;;;10383540;28;20197;-77
2022/12/20 18:59:47;;;;;;;84.93;40.33;;;3.40;99.90;;;;;;10360253;28;20445;-79
2022/12/20 19:05:09;;;;;;;106.63;46.13;;;3.30;99.90;;;;;;10357227;28;20225;-76
2022/12/20 19:10:31;;;;;;;186.13;75.73;;;3.30;99.90;;;;;;10357697;28;20511;-76
2022/12/20 19:16:07;;;;;;;118.37;56.57;;;3.40;99.90;;;;;;10376266;28;20284;-76
2022/12/20 19:21:31;;;;;;;90.17;41.53;;;3.40;99.90;;;;;;10397487;28;20204;-79
2022/12/20 19:26:52;;;;;;;81.00;39.27;;;3.40;99.90;;;;;;10397335;28;20228;-77
2022/12/20 19:32:14;;;;;;;74.90;34.43;;;3.40;99.90;;;;;;10382322;28;20257;-77
2022/12/20 19:37:35;;;;;;;67.93;35.03;;;3.40;99.90;;;;;;10369223;28;20199;-76
2022/12/20 19:42:57;;;;;;;66.73;34.80;;;3.40;99.90;;;;;;10355506;28;20198;-78
2022/12/20 19:48:20;;;;;;;67.17;36.13;;;3.30;99.90;;;;;;10382604;28;20213;-77
2022/12/20 19:53:43;;;;;;;80.93;43.80;;;3.40;99.90;;;;;;10382097;28;20272;-76
2022/12/20 19:59:04;;;;;;;68.23;37.00;;;3.40;99.90;;;;;;10395800;28;20221;-81
2022/12/20 20:04:26;;;;;;;73.40;37.27;;;3.40;99.90;;;;;;10356986;28;20229;-79
2022/12/20 20:09:47;;;;;;;75.00;37.50;;;3.40;99.90;;;;;;10356201;28;20198;-78
2022/12/20 20:15:08;;;;;;;66.90;33.53;;;3.40;99.90;;;;;;10356925;28;20198;-76
2022/12/20 20:20:30;;;;;;;62.20;33.73;;;3.30;99.90;;;;;;10394591;28;20209;-78
2022/12/20 20:25:55;;;;;;;66.63;33.07;;;3.30;99.90;;;;;;10390908;28;20304;-78
2022/12/20 20:31:18;;;;;;;65.90;35.67;;;3.30;99.90;;;;;;10394903;28;20292;-77
2022/12/20 20:36:40;;;;;;;64.93;32.47;;;3.30;99.90;;;;;;10394753;28;20475;-76
2022/12/20 20:42:01;;;;;;;63.67;33.57;;;3.40;99.90;;;;;;10394764;28;20214;-76
2022/12/20 20:47:22;;;;;;;60.43;30.77;;;3.40;99.90;;;;;;10394627;28;20240;-78
2022/12/20 20:52:43;;;;;;;81.90;38.17;;;3.40;99.90;;;;;;10366577;28;20251;-77
2022/12/20 20:58:05;;;;;;;78.40;36.97;;;3.40;99.90;;;;;;10402960;28;20215;-79
2022/12/20 21:03:27;;;;;;;76.07;34.83;;;3.40;99.90;;;;;;10375123;28;20217;-77
2022/12/20 21:08:48;;;;;;;77.33;35.33;;;3.40;99.90;;;;;;10371778;28;20202;-78
2022/12/20 21:14:10;;;;;;;67.63;33.13;;;3.40;99.90;;;;;;10361888;28;20194;-76
2022/12/20 21:19:31;;;;;;;71.13;34.63;;;3.40;99.90;;;;;;10365279;28;20450;-77
2022/12/20 21:24:52;;;;;;;70.10;35.33;;;3.50;99.90;;;;;;10376035;28;20221;-80
2022/12/20 21:30:13;;;;;;;76.47;36.80;;;3.50;99.90;;;;;;10399586;28;20581;-76
2022/12/20 21:35:34;;;;;;;70.97;40.17;;;3.40;99.90;;;;;;10400040;28;20201;-75
2022/12/20 21:41:04;;;;;;;82.47;38.50;;;3.40;99.90;;;;;;10402408;28;20220;-76
2022/12/20 21:46:28;;;;;;;63.60;32.97;;;3.40;99.90;;;;;;10402203;28;20244;-78
2022/12/20 21:51:49;;;;;;;74.77;32.93;;;3.40;99.90;;;;;;10400970;28;20207;-77
2022/12/20 21:57:10;;;;;;;68.10;35.03;;;3.40;99.90;;;;;;10401224;28;20199;-78
2022/12/20 22:02:31;;;;;;;70.43;36.07;;;3.40;99.90;;;;;;10387103;28;20193;-80
2022/12/20 22:07:52;;;;;;;75.23;36.87;;;3.40;99.90;;;;;;10384554;28;20523;-79
2022/12/20 22:13:13;;;;;;;71.73;34.30;;;3.40;99.90;;;;;;10401200;28;20211;-78
2022/12/20 22:18:35;;;;;;;70.00;33.97;;;3.30;99.90;;;;;;10400886;28;20499;-79
2022/12/20 22:23:57;;;;;;;69.30;33.40;;;3.40;99.90;;;;;;10381043;28;20232;-77
2022/12/20 22:29:19;;;;;;;65.30;33.77;;;3.40;99.90;;;;;;10399543;28;20224;-78
2022/12/20 22:34:40;;;;;;;62.10;32.00;;;3.30;99.90;;;;;;10399333;28;20454;-77
2022/12/20 22:40:01;;;;;;;57.30;29.80;;;3.30;99.90;;;;;;10400232;28;20190;-75
2022/12/20 22:45:22;;;;;;;55.30;30.47;;;3.30;99.90;;;;;;10399250;28;20222;-79
2022/12/20 22:50:43;;;;;;;61.63;31.33;;;3.30;99.90;;;;;;10398199;28;20216;-78
2022/12/20 22:56:05;;;;;;;70.00;33.50;;;3.30;99.90;;;;;;10384473;28;20205;-80
2022/12/20 23:01:26;;;;;;;71.87;35.03;;;3.30;99.90;;;;;;10384395;28;20221;-77
2022/12/20 23:06:47;;;;;;;60.13;30.83;;;3.30;99.90;;;;;;10396070;28;20279;-79
2022/12/20 23:17:49;;;;;;;83.57;40.13;;;3.40;99.90;;;;;;10382999;28;20217;-76
2022/12/20 23:23:10;;;;;;;80.87;37.00;;;3.40;99.90;;;;;;10371514;28;20280;-76
2022/12/20 23:28:31;;;;;;;65.83;32.43;;;3.40;99.90;;;;;;10398260;28;20259;-77
2022/12/20 23:33:52;;;;;;;60.30;32.10;;;3.40;99.90;;;;;;10395893;28;20244;-79
2022/12/20 23:39:14;;;;;;;67.53;34.27;;;3.40;99.90;;;;;;10343074;28;20198;-78
2022/12/20 23:44:35;;;;;;;83.03;37.97;;;3.40;99.90;;;;;;10357149;28;20284;-77
2022/12/20 23:49:56;;;;;;;71.97;33.43;;;3.30;99.90;;;;;;10377316;28;20247;-79
2022/12/20 23:55:17;;;;;;;76.03;35.17;;;3.30;99.90;;;;;;10396345;28;20231;-79
